Terminal Aerodrome Forecast
Issued by NWS

Home | Current Version | Previous Version | Graphics & Text | Print | Product List | Glossary On
Versions: 1 2 3 4 5 6 7 8 9 10 11 12 13 14 15 16 17
000
FTUS43 KMPX 161120
TAFRWF
TAF
KRWF 161120Z 1612/1712 18006KT P6SM BKN020 OVC100
     FM161500 VRB03KT 6SM BR OVC015
     FM162200 02005KT 4SM -FZRASN BR OVC015
     FM170400 33006KT 1SM BR OVC007=

USA.gov is the U.S. government's official web portal to all federal, state and local government web resources and services.